sensor_id;sensor_type;location;lat;lon;timestamp;P1;durP1;ratioP1;P2;durP2;ratioP2
77466;SDS011;66564;42.482;25.548;2023-04-24T00:01:42;11.40;;;4.90;;
77466;SDS011;66564;42.482;25.548;2023-04-24T00:04:07;10.32;;;4.88;;
77466;SDS011;66564;42.482;25.548;2023-04-24T00:06:36;12.95;;;4.47;;
77466;SDS011;66564;42.482;25.548;2023-04-24T00:09:05;9.95;;;4.63;;
77466;SDS011;66564;42.482;25.548;2023-04-24T00:11:31;8.43;;;4.45;;
77466;SDS011;66564;42.482;25.548;2023-04-24T00:13:57;8.05;;;4.60;;
77466;SDS011;66564;42.482;25.548;2023-04-24T00:16:23;7.22;;;3.70;;
77466;SDS011;66564;42.482;25.548;2023-04-24T00:18:48;10.32;;;5.75;;
77466;SDS011;66564;42.482;25.548;2023-04-24T00:21:14;6.38;;;4.78;;
77466;SDS011;66564;42.482;25.548;2023-04-24T00:23:42;7.53;;;4.43;;
77466;SDS011;66564;42.482;25.548;2023-04-24T00:26:08;11.15;;;4.70;;
77466;SDS011;66564;42.482;25.548;2023-04-24T00:28:34;7.18;;;4.53;;
77466;SDS011;66564;42.482;25.548;2023-04-24T00:31:00;6.22;;;4.45;;
77466;SDS011;66564;42.482;25.548;2023-04-24T00:33:25;9.65;;;4.53;;
77466;SDS011;66564;42.482;25.548;2023-04-24T00:35:51;9.57;;;5.10;;
77466;SDS011;66564;42.482;25.548;2023-04-24T00:38:16;9.50;;;4.85;;
77466;SDS011;66564;42.482;25.548;2023-04-24T00:40:42;8.25;;;4.93;;
77466;SDS011;66564;42.482;25.548;2023-04-24T00:43:08;10.73;;;4.97;;
77466;SDS011;66564;42.482;25.548;2023-04-24T00:45:33;9.20;;;5.45;;
77466;SDS011;66564;42.482;25.548;2023-04-24T00:47:59;8.40;;;4.60;;
77466;SDS011;66564;42.482;25.548;2023-04-24T00:50:25;7.93;;;4.57;;
77466;SDS011;66564;42.482;25.548;2023-04-24T00:52:51;11.30;;;5.82;;
77466;SDS011;66564;42.482;25.548;2023-04-24T00:55:17;6.07;;;4.20;;
77466;SDS011;66564;42.482;25.548;2023-04-24T00:57:44;7.45;;;4.20;;
77466;SDS011;66564;42.482;25.548;2023-04-24T01:00:10;10.77;;;5.20;;
77466;SDS011;66564;42.482;25.548;2023-04-24T01:02:41;7.32;;;4.68;;
77466;SDS011;66564;42.482;25.548;2023-04-24T01:05:12;12.98;;;5.05;;
77466;SDS011;66564;42.482;25.548;2023-04-24T01:07:38;10.95;;;4.85;;
77466;SDS011;66564;42.482;25.548;2023-04-24T01:10:06;10.38;;;4.53;;
77466;SDS011;66564;42.482;25.548;2023-04-24T01:12:33;7.70;;;4.78;;
77466;SDS011;66564;42.482;25.548;2023-04-24T01:14:58;10.18;;;4.53;;
77466;SDS011;66564;42.482;25.548;2023-04-24T01:17:44;7.10;;;4.85;;
77466;SDS011;66564;42.482;25.548;2023-04-24T01:20:10;10.25;;;4.88;;
77466;SDS011;66564;42.482;25.548;2023-04-24T01:22:36;10.07;;;4.82;;
77466;SDS011;66564;42.482;25.548;2023-04-24T01:25:02;10.02;;;4.85;;
77466;SDS011;66564;42.482;25.548;2023-04-24T01:27:29;10.55;;;5.22;;
77466;SDS011;66564;42.482;25.548;2023-04-24T01:29:54;14.23;;;6.38;;
77466;SDS011;66564;42.482;25.548;2023-04-24T01:32:20;13.40;;;5.25;;
77466;SDS011;66564;42.482;25.548;2023-04-24T01:34:46;10.80;;;5.13;;
77466;SDS011;66564;42.482;25.548;2023-04-24T01:37:12;8.85;;;5.43;;
77466;SDS011;66564;42.482;25.548;2023-04-24T01:39:37;10.00;;;5.45;;
77466;SDS011;66564;42.482;25.548;2023-04-24T01:42:03;8.43;;;5.15;;
77466;SDS011;66564;42.482;25.548;2023-04-24T01:44:30;9.52;;;5.13;;
77466;SDS011;66564;42.482;25.548;2023-04-24T01:46:56;8.68;;;5.13;;
77466;SDS011;66564;42.482;25.548;2023-04-24T01:49:21;7.18;;;5.13;;
77466;SDS011;66564;42.482;25.548;2023-04-24T01:51:47;14.02;;;5.63;;
77466;SDS011;66564;42.482;25.548;2023-04-24T01:54:13;7.53;;;4.95;;
77466;SDS011;66564;42.482;25.548;2023-04-24T01:56:42;13.88;;;6.85;;
77466;SDS011;66564;42.482;25.548;2023-04-24T01:59:11;11.40;;;6.00;;
77466;SDS011;66564;42.482;25.548;2023-04-24T02:01:38;7.90;;;5.78;;
77466;SDS011;66564;42.482;25.548;2023-04-24T02:04:04;13.10;;;5.68;;
77466;SDS011;66564;42.482;25.548;2023-04-24T02:06:31;12.27;;;5.88;;
77466;SDS011;66564;42.482;25.548;2023-04-24T02:08:57;13.90;;;5.63;;
77466;SDS011;66564;42.482;25.548;2023-04-24T02:11:23;11.10;;;5.90;;
77466;SDS011;66564;42.482;25.548;2023-04-24T02:13:49;15.45;;;6.03;;
77466;SDS011;66564;42.482;25.548;2023-04-24T02:16:15;10.00;;;6.30;;
77466;SDS011;66564;42.482;25.548;2023-04-24T02:18:41;11.93;;;5.78;;
77466;SDS011;66564;42.482;25.548;2023-04-24T02:21:06;10.68;;;5.78;;
77466;SDS011;66564;42.482;25.548;2023-04-24T02:23:32;8.55;;;5.90;;
77466;SDS011;66564;42.482;25.548;2023-04-24T02:25:57;10.05;;;5.35;;
77466;SDS011;66564;42.482;25.548;2023-04-24T02:28:23;9.57;;;6.15;;
77466;SDS011;66564;42.482;25.548;2023-04-24T02:30:48;10.15;;;5.95;;
77466;SDS011;66564;42.482;25.548;2023-04-24T02:33:15;8.10;;;5.65;;
77466;SDS011;66564;42.482;25.548;2023-04-24T02:35:41;12.70;;;6.63;;
77466;SDS011;66564;42.482;25.548;2023-04-24T02:38:06;11.73;;;5.63;;
77466;SDS011;66564;42.482;25.548;2023-04-24T02:40:32;9.18;;;5.35;;
77466;SDS011;66564;42.482;25.548;2023-04-24T02:42:57;8.82;;;5.28;;
77466;SDS011;66564;42.482;25.548;2023-04-24T02:45:23;13.15;;;5.85;;
77466;SDS011;66564;42.482;25.548;2023-04-24T02:47:48;8.05;;;5.35;;
77466;SDS011;66564;42.482;25.548;2023-04-24T02:50:14;8.93;;;5.47;;
77466;SDS011;66564;42.482;25.548;2023-04-24T02:52:39;8.15;;;5.20;;
77466;SDS011;66564;42.482;25.548;2023-04-24T02:55:05;10.55;;;5.85;;
77466;SDS011;66564;42.482;25.548;2023-04-24T02:57:32;12.10;;;5.63;;
77466;SDS011;66564;42.482;25.548;2023-04-24T02:59:58;8.63;;;5.45;;
77466;SDS011;66564;42.482;25.548;2023-04-24T03:02:24;9.10;;;5.35;;
77466;SDS011;66564;42.482;25.548;2023-04-24T03:04:50;8.98;;;5.32;;
77466;SDS011;66564;42.482;25.548;2023-04-24T03:07:16;10.07;;;6.15;;
77466;SDS011;66564;42.482;25.548;2023-04-24T03:09:41;9.68;;;5.63;;
77466;SDS011;66564;42.482;25.548;2023-04-24T03:12:07;10.27;;;6.25;;
77466;SDS011;66564;42.482;25.548;2023-04-24T03:14:45;11.00;;;5.88;;
77466;SDS011;66564;42.482;25.548;2023-04-24T03:17:11;8.85;;;6.03;;
77466;SDS011;66564;42.482;25.548;2023-04-24T03:19:36;17.17;;;6.30;;
77466;SDS011;66564;42.482;25.548;2023-04-24T03:22:02;9.73;;;6.00;;
77466;SDS011;66564;42.482;25.548;2023-04-24T03:24:28;9.65;;;5.50;;
77466;SDS011;66564;42.482;25.548;2023-04-24T03:26:53;7.07;;;5.10;;
77466;SDS011;66564;42.482;25.548;2023-04-24T03:29:21;10.40;;;5.10;;
77466;SDS011;66564;42.482;25.548;2023-04-24T03:31:47;8.60;;;4.97;;
77466;SDS011;66564;42.482;25.548;2023-04-24T03:34:12;11.82;;;5.30;;
77466;SDS011;66564;42.482;25.548;2023-04-24T03:36:40;8.82;;;5.18;;
77466;SDS011;66564;42.482;25.548;2023-04-24T03:39:05;10.35;;;5.88;;
77466;SDS011;66564;42.482;25.548;2023-04-24T03:41:31;11.73;;;6.05;;
77466;SDS011;66564;42.482;25.548;2023-04-24T03:43:56;12.88;;;5.80;;
77466;SDS011;66564;42.482;25.548;2023-04-24T03:46:22;9.65;;;5.68;;
77466;SDS011;66564;42.482;25.548;2023-04-24T03:48:47;11.15;;;5.38;;
77466;SDS011;66564;42.482;25.548;2023-04-24T03:51:16;9.18;;;5.05;;
77466;SDS011;66564;42.482;25.548;2023-04-24T03:53:41;10.95;;;5.50;;
77466;SDS011;66564;42.482;25.548;2023-04-24T03:56:07;9.25;;;5.85;;
77466;SDS011;66564;42.482;25.548;2023-04-24T03:58:33;11.40;;;5.93;;
77466;SDS011;66564;42.482;25.548;2023-04-24T04:00:58;11.35;;;5.82;;
77466;SDS011;66564;42.482;25.548;2023-04-24T04:03:25;11.35;;;6.32;;
77466;SDS011;66564;42.482;25.548;2023-04-24T04:05:50;11.50;;;6.53;;
77466;SDS011;66564;42.482;25.548;2023-04-24T04:08:16;14.07;;;5.75;;
77466;SDS011;66564;42.482;25.548;2023-04-24T04:10:41;9.07;;;5.70;;
77466;SDS011;66564;42.482;25.548;2023-04-24T04:13:07;13.23;;;6.20;;
77466;SDS011;66564;42.482;25.548;2023-04-24T04:15:32;10.00;;;6.00;;
77466;SDS011;66564;42.482;25.548;2023-04-24T04:17:58;8.98;;;6.40;;
77466;SDS011;66564;42.482;25.548;2023-04-24T04:20:24;15.00;;;5.93;;
77466;SDS011;66564;42.482;25.548;2023-04-24T04:22:49;9.27;;;6.32;;
77466;SDS011;66564;42.482;25.548;2023-04-24T04:25:15;9.48;;;5.85;;
77466;SDS011;66564;42.482;25.548;2023-04-24T04:27:40;7.45;;;5.43;;
77466;SDS011;66564;42.482;25.548;2023-04-24T04:30:07;13.93;;;5.82;;
77466;SDS011;66564;42.482;25.548;2023-04-24T04:32:34;10.68;;;5.85;;
77466;SDS011;66564;42.482;25.548;2023-04-24T04:35:00;7.90;;;5.15;;
77466;SDS011;66564;42.482;25.548;2023-04-24T04:37:29;8.32;;;5.32;;
77466;SDS011;66564;42.482;25.548;2023-04-24T04:39:56;12.55;;;6.13;;
77466;SDS011;66564;42.482;25.548;2023-04-24T04:42:25;9.73;;;5.78;;
77466;SDS011;66564;42.482;25.548;2023-04-24T04:44:52;12.77;;;5.57;;
77466;SDS011;66564;42.482;25.548;2023-04-24T04:47:18;13.48;;;6.63;;
77466;SDS011;66564;42.482;25.548;2023-04-24T04:49:49;18.00;;;6.80;;
77466;SDS011;66564;42.482;25.548;2023-04-24T04:52:16;11.63;;;7.13;;
77466;SDS011;66564;42.482;25.548;2023-04-24T04:54:42;15.73;;;7.78;;
77466;SDS011;66564;42.482;25.548;2023-04-24T04:57:08;19.48;;;9.82;;
77466;SDS011;66564;42.482;25.548;2023-04-24T04:59:34;19.52;;;9.55;;
77466;SDS011;66564;42.482;25.548;2023-04-24T05:02:00;21.20;;;9.82;;
77466;SDS011;66564;42.482;25.548;2023-04-24T05:04:25;18.40;;;9.15;;
77466;SDS011;66564;42.482;25.548;2023-04-24T05:06:51;16.88;;;8.10;;
77466;SDS011;66564;42.482;25.548;2023-04-24T05:09:17;16.20;;;7.10;;
77466;SDS011;66564;42.482;25.548;2023-04-24T05:11:43;14.27;;;6.80;;
77466;SDS011;66564;42.482;25.548;2023-04-24T05:14:09;12.18;;;6.28;;
77466;SDS011;66564;42.482;25.548;2023-04-24T05:16:34;10.20;;;6.25;;
77466;SDS011;66564;42.482;25.548;2023-04-24T05:19:01;9.02;;;5.07;;
77466;SDS011;66564;42.482;25.548;2023-04-24T05:21:27;10.02;;;5.65;;
77466;SDS011;66564;42.482;25.548;2023-04-24T05:23:53;8.98;;;4.97;;
77466;SDS011;66564;42.482;25.548;2023-04-24T05:26:18;12.48;;;6.35;;
77466;SDS011;66564;42.482;25.548;2023-04-24T05:28:44;39.92;;;8.43;;
77466;SDS011;66564;42.482;25.548;2023-04-24T05:31:10;10.23;;;5.20;;
77466;SDS011;66564;42.482;25.548;2023-04-24T05:33:35;9.52;;;5.20;;
77466;SDS011;66564;42.482;25.548;2023-04-24T05:36:01;12.23;;;4.65;;
77466;SDS011;66564;42.482;25.548;2023-04-24T05:38:26;8.73;;;5.60;;
77466;SDS011;66564;42.482;25.548;2023-04-24T05:40:52;11.93;;;5.05;;
77466;SDS011;66564;42.482;25.548;2023-04-24T05:43:18;10.70;;;4.72;;
77466;SDS011;66564;42.482;25.548;2023-04-24T05:45:43;11.30;;;5.05;;
77466;SDS011;66564;42.482;25.548;2023-04-24T05:48:09;8.45;;;5.80;;
77466;SDS011;66564;42.482;25.548;2023-04-24T05:50:34;14.27;;;5.63;;
77466;SDS011;66564;42.482;25.548;2023-04-24T05:53:00;16.77;;;5.45;;
77466;SDS011;66564;42.482;25.548;2023-04-24T05:55:27;8.50;;;5.38;;
77466;SDS011;66564;42.482;25.548;2023-04-24T05:57:53;9.20;;;5.35;;
77466;SDS011;66564;42.482;25.548;2023-04-24T06:00:19;13.85;;;5.97;;
77466;SDS011;66564;42.482;25.548;2023-04-24T06:02:45;9.63;;;5.50;;
77466;SDS011;66564;42.482;25.548;2023-04-24T06:05:12;13.77;;;5.88;;
77466;SDS011;66564;42.482;25.548;2023-04-24T06:07:37;12.27;;;5.30;;
77466;SDS011;66564;42.482;25.548;2023-04-24T06:10:03;7.47;;;5.22;;
77466;SDS011;66564;42.482;25.548;2023-04-24T06:12:29;9.43;;;5.43;;
77466;SDS011;66564;42.482;25.548;2023-04-24T06:14:55;15.60;;;5.95;;
77466;SDS011;66564;42.482;25.548;2023-04-24T06:17:21;14.55;;;5.60;;
77466;SDS011;66564;42.482;25.548;2023-04-24T06:19:46;8.23;;;5.78;;
77466;SDS011;66564;42.482;25.548;2023-04-24T06:22:12;10.07;;;5.47;;
77466;SDS011;66564;42.482;25.548;2023-04-24T06:24:39;11.65;;;6.55;;
77466;SDS011;66564;42.482;25.548;2023-04-24T06:27:05;10.82;;;6.30;;
77466;SDS011;66564;42.482;25.548;2023-04-24T06:29:31;14.82;;;5.88;;
77466;SDS011;66564;42.482;25.548;2023-04-24T06:31:56;12.82;;;5.85;;
77466;SDS011;66564;42.482;25.548;2023-04-24T06:34:22;14.00;;;5.95;;
77466;SDS011;66564;42.482;25.548;2023-04-24T06:36:47;10.55;;;6.38;;
77466;SDS011;66564;42.482;25.548;2023-04-24T06:39:13;19.02;;;6.47;;
77466;SDS011;66564;42.482;25.548;2023-04-24T06:41:38;17.35;;;6.60;;
77466;SDS011;66564;42.482;25.548;2023-04-24T06:44:05;14.50;;;6.07;;
77466;SDS011;66564;42.482;25.548;2023-04-24T06:46:30;11.30;;;6.35;;
77466;SDS011;66564;42.482;25.548;2023-04-24T06:48:56;8.93;;;5.82;;
77466;SDS011;66564;42.482;25.548;2023-04-24T06:51:25;11.55;;;6.20;;
77466;SDS011;66564;42.482;25.548;2023-04-24T06:53:52;11.75;;;6.22;;
77466;SDS011;66564;42.482;25.548;2023-04-24T06:56:23;13.98;;;6.25;;
77466;SDS011;66564;42.482;25.548;2023-04-24T06:58:48;11.02;;;5.80;;
77466;SDS011;66564;42.482;25.548;2023-04-24T07:01:14;12.70;;;6.50;;
77466;SDS011;66564;42.482;25.548;2023-04-24T07:03:40;9.95;;;6.38;;
77466;SDS011;66564;42.482;25.548;2023-04-24T07:06:05;11.68;;;6.30;;
77466;SDS011;66564;42.482;25.548;2023-04-24T07:08:31;13.63;;;6.15;;
77466;SDS011;66564;42.482;25.548;2023-04-24T07:10:59;15.38;;;6.32;;
77466;SDS011;66564;42.482;25.548;2023-04-24T07:13:24;13.45;;;5.68;;
77466;SDS011;66564;42.482;25.548;2023-04-24T07:15:51;12.98;;;6.18;;
77466;SDS011;66564;42.482;25.548;2023-04-24T07:18:18;13.80;;;5.68;;
77466;SDS011;66564;42.482;25.548;2023-04-24T07:20:54;14.20;;;7.03;;
77466;SDS011;66564;42.482;25.548;2023-04-24T07:23:20;10.02;;;6.10;;
77466;SDS011;66564;42.482;25.548;2023-04-24T07:25:45;8.25;;;5.15;;
77466;SDS011;66564;42.482;25.548;2023-04-24T07:28:12;10.55;;;6.10;;
77466;SDS011;66564;42.482;25.548;2023-04-24T07:30:38;10.38;;;5.85;;
77466;SDS011;66564;42.482;25.548;2023-04-24T07:33:03;7.13;;;5.47;;
77466;SDS011;66564;42.482;25.548;2023-04-24T07:35:29;10.65;;;5.95;;
77466;SDS011;66564;42.482;25.548;2023-04-24T07:37:55;16.30;;;6.75;;
77466;SDS011;66564;42.482;25.548;2023-04-24T07:40:21;13.90;;;6.63;;
77466;SDS011;66564;42.482;25.548;2023-04-24T07:42:47;13.02;;;5.82;;
77466;SDS011;66564;42.482;25.548;2023-04-24T07:45:15;9.63;;;5.22;;
77466;SDS011;66564;42.482;25.548;2023-04-24T07:47:42;9.40;;;5.93;;
77466;SDS011;66564;42.482;25.548;2023-04-24T07:50:09;10.38;;;5.43;;
77466;SDS011;66564;42.482;25.548;2023-04-24T07:52:35;11.30;;;5.80;;
77466;SDS011;66564;42.482;25.548;2023-04-24T07:55:00;11.95;;;6.38;;
77466;SDS011;66564;42.482;25.548;2023-04-24T07:57:27;6.78;;;5.03;;
77466;SDS011;66564;42.482;25.548;2023-04-24T07:59:53;8.38;;;5.57;;
77466;SDS011;66564;42.482;25.548;2023-04-24T08:02:18;10.50;;;5.53;;
77466;SDS011;66564;42.482;25.548;2023-04-24T08:04:43;13.13;;;5.93;;
77466;SDS011;66564;42.482;25.548;2023-04-24T08:07:09;7.78;;;5.40;;
77466;SDS011;66564;42.482;25.548;2023-04-24T08:09:35;12.20;;;5.72;;
77466;SDS011;66564;42.482;25.548;2023-04-24T08:12:00;12.82;;;5.55;;
77466;SDS011;66564;42.482;25.548;2023-04-24T08:14:27;12.55;;;5.55;;
77466;SDS011;66564;42.482;25.548;2023-04-24T08:16:56;10.73;;;5.20;;
77466;SDS011;66564;42.482;25.548;2023-04-24T08:19:22;8.73;;;5.32;;
77466;SDS011;66564;42.482;25.548;2023-04-24T08:21:47;10.02;;;5.40;;
77466;SDS011;66564;42.482;25.548;2023-04-24T08:24:13;8.07;;;5.40;;
77466;SDS011;66564;42.482;25.548;2023-04-24T08:26:39;10.82;;;6.28;;
77466;SDS011;66564;42.482;25.548;2023-04-24T08:29:04;11.63;;;6.28;;
77466;SDS011;66564;42.482;25.548;2023-04-24T08:31:31;11.52;;;6.03;;
77466;SDS011;66564;42.482;25.548;2023-04-24T08:33:57;12.40;;;5.97;;
77466;SDS011;66564;42.482;25.548;2023-04-24T08:36:23;9.43;;;5.90;;
77466;SDS011;66564;42.482;25.548;2023-04-24T08:38:48;16.08;;;6.28;;
77466;SDS011;66564;42.482;25.548;2023-04-24T08:41:14;11.82;;;5.50;;
77466;SDS011;66564;42.482;25.548;2023-04-24T08:43:41;9.93;;;5.00;;
77466;SDS011;66564;42.482;25.548;2023-04-24T08:46:07;12.15;;;6.22;;
77466;SDS011;66564;42.482;25.548;2023-04-24T08:48:34;10.35;;;5.85;;
77466;SDS011;66564;42.482;25.548;2023-04-24T08:50:59;12.27;;;5.65;;
77466;SDS011;66564;42.482;25.548;2023-04-24T08:53:27;7.47;;;5.47;;
77466;SDS011;66564;42.482;25.548;2023-04-24T08:55:52;6.95;;;5.03;;
77466;SDS011;66564;42.482;25.548;2023-04-24T08:58:20;11.30;;;5.45;;
77466;SDS011;66564;42.482;25.548;2023-04-24T09:00:47;11.65;;;5.93;;
77466;SDS011;66564;42.482;25.548;2023-04-24T09:03:13;12.45;;;5.75;;
77466;SDS011;66564;42.482;25.548;2023-04-24T09:05:41;8.60;;;5.30;;
77466;SDS011;66564;42.482;25.548;2023-04-24T09:08:12;15.45;;;6.22;;
77466;SDS011;66564;42.482;25.548;2023-04-24T09:10:39;10.75;;;5.53;;
77466;SDS011;66564;42.482;25.548;2023-04-24T09:13:06;12.07;;;6.75;;
77466;SDS011;66564;42.482;25.548;2023-04-24T09:15:34;8.55;;;6.15;;
77466;SDS011;66564;42.482;25.548;2023-04-24T09:18:00;13.63;;;6.43;;
77466;SDS011;66564;42.482;25.548;2023-04-24T09:20:26;12.85;;;6.35;;
77466;SDS011;66564;42.482;25.548;2023-04-24T09:22:56;8.75;;;5.57;;
77466;SDS011;66564;42.482;25.548;2023-04-24T09:25:22;12.57;;;6.15;;
77466;SDS011;66564;42.482;25.548;2023-04-24T09:27:53;11.18;;;6.13;;
77466;SDS011;66564;42.482;25.548;2023-04-24T09:30:22;9.35;;;6.15;;
77466;SDS011;66564;42.482;25.548;2023-04-24T09:32:48;8.40;;;5.40;;
77466;SDS011;66564;42.482;25.548;2023-04-24T09:35:14;9.63;;;6.00;;
77466;SDS011;66564;42.482;25.548;2023-04-24T09:37:59;10.77;;;6.65;;
77466;SDS011;66564;42.482;25.548;2023-04-24T09:40:25;14.75;;;6.50;;
77466;SDS011;66564;42.482;25.548;2023-04-24T09:42:55;16.00;;;6.60;;
77466;SDS011;66564;42.482;25.548;2023-04-24T09:45:35;12.30;;;5.63;;
77466;SDS011;66564;42.482;25.548;2023-04-24T09:48:08;14.75;;;6.50;;
77466;SDS011;66564;42.482;25.548;2023-04-24T09:50:37;12.95;;;5.90;;
77466;SDS011;66564;42.482;25.548;2023-04-24T09:53:03;10.70;;;6.32;;
77466;SDS011;66564;42.482;25.548;2023-04-24T09:55:30;10.25;;;7.28;;
77466;SDS011;66564;42.482;25.548;2023-04-24T09:57:59;10.90;;;7.30;;
77466;SDS011;66564;42.482;25.548;2023-04-24T10:00:29;12.45;;;7.75;;
77466;SDS011;66564;42.482;25.548;2023-04-24T10:02:58;12.00;;;7.63;;
77466;SDS011;66564;42.482;25.548;2023-04-24T10:08:01;19.15;;;9.10;;
77466;SDS011;66564;42.482;25.548;2023-04-24T10:10:35;13.50;;;7.22;;
77466;SDS011;66564;42.482;25.548;2023-04-24T10:13:04;11.07;;;6.97;;
77466;SDS011;66564;42.482;25.548;2023-04-24T10:15:30;11.00;;;6.50;;
77466;SDS011;66564;42.482;25.548;2023-04-24T10:17:57;18.73;;;7.90;;
77466;SDS011;66564;42.482;25.548;2023-04-24T10:20:27;11.02;;;7.13;;
77466;SDS011;66564;42.482;25.548;2023-04-24T10:22:55;15.48;;;7.18;;
77466;SDS011;66564;42.482;25.548;2023-04-24T10:25:28;10.90;;;6.57;;
77466;SDS011;66564;42.482;25.548;2023-04-24T10:27:55;10.38;;;7.28;;
77466;SDS011;66564;42.482;25.548;2023-04-24T10:32:52;8.52;;;6.28;;
77466;SDS011;66564;42.482;25.548;2023-04-24T10:35:18;11.02;;;6.70;;
77466;SDS011;66564;42.482;25.548;2023-04-24T10:37:51;13.70;;;7.03;;
77466;SDS011;66564;42.482;25.548;2023-04-24T10:40:25;14.73;;;7.72;;
77466;SDS011;66564;42.482;25.548;2023-04-24T10:42:54;9.32;;;6.28;;
77466;SDS011;66564;42.482;25.548;2023-04-24T10:45:21;10.80;;;6.88;;
77466;SDS011;66564;42.482;25.548;2023-04-24T10:48:07;12.52;;;6.65;;
77466;SDS011;66564;42.482;25.548;2023-04-24T10:50:56;10.20;;;6.57;;
77466;SDS011;66564;42.482;25.548;2023-04-24T10:53:31;12.57;;;7.32;;
77466;SDS011;66564;42.482;25.548;2023-04-24T10:56:04;11.60;;;6.20;;
77466;SDS011;66564;42.482;25.548;2023-04-24T10:58:38;13.57;;;7.03;;
77466;SDS011;66564;42.482;25.548;2023-04-24T11:01:05;11.43;;;6.93;;
77466;SDS011;66564;42.482;25.548;2023-04-24T11:03:32;9.77;;;7.03;;
77466;SDS011;66564;42.482;25.548;2023-04-24T11:06:06;11.57;;;6.90;;
77466;SDS011;66564;42.482;25.548;2023-04-24T11:08:39;12.43;;;7.22;;
77466;SDS011;66564;42.482;25.548;2023-04-24T11:16:25;12.55;;;6.97;;
77466;SDS011;66564;42.482;25.548;2023-04-24T11:19:27;13.15;;;7.13;;
77466;SDS011;66564;42.482;25.548;2023-04-24T11:21:59;11.05;;;7.40;;
77466;SDS011;66564;42.482;25.548;2023-04-24T11:24:30;10.88;;;6.65;;
77466;SDS011;66564;42.482;25.548;2023-04-24T11:27:17;10.52;;;7.18;;
77466;SDS011;66564;42.482;25.548;2023-04-24T11:32:35;14.30;;;7.35;;
77466;SDS011;66564;42.482;25.548;2023-04-24T11:37:35;14.38;;;8.00;;
77466;SDS011;66564;42.482;25.548;2023-04-24T11:40:06;15.95;;;8.25;;
77466;SDS011;66564;42.482;25.548;2023-04-24T11:42:37;10.38;;;7.40;;
77466;SDS011;66564;42.482;25.548;2023-04-24T11:45:10;11.35;;;7.40;;
77466;SDS011;66564;42.482;25.548;2023-04-24T11:47:37;14.73;;;7.65;;
77466;SDS011;66564;42.482;25.548;2023-04-24T11:50:04;12.57;;;7.38;;
77466;SDS011;66564;42.482;25.548;2023-04-24T11:52:33;10.60;;;7.80;;
77466;SDS011;66564;42.482;25.548;2023-04-24T11:55:02;11.07;;;7.90;;
77466;SDS011;66564;42.482;25.548;2023-04-24T11:57:28;15.20;;;8.23;;
77466;SDS011;66564;42.482;25.548;2023-04-24T11:59:59;16.70;;;9.13;;
77466;SDS011;66564;42.482;25.548;2023-04-24T12:02:28;12.50;;;8.85;;
77466;SDS011;66564;42.482;25.548;2023-04-24T12:04:54;12.95;;;8.27;;
77466;SDS011;66564;42.482;25.548;2023-04-24T12:07:20;12.50;;;8.40;;
77466;SDS011;66564;42.482;25.548;2023-04-24T12:09:48;13.50;;;8.35;;
77466;SDS011;66564;42.482;25.548;2023-04-24T12:12:20;11.75;;;8.38;;
77466;SDS011;66564;42.482;25.548;2023-04-24T12:14:49;9.88;;;7.75;;
77466;SDS011;66564;42.482;25.548;2023-04-24T12:17:24;12.73;;;8.20;;
77466;SDS011;66564;42.482;25.548;2023-04-24T12:19:51;11.60;;;8.75;;
77466;SDS011;66564;42.482;25.548;2023-04-24T12:22:16;11.55;;;8.35;;
77466;SDS011;66564;42.482;25.548;2023-04-24T12:24:58;13.68;;;8.73;;
77466;SDS011;66564;42.482;25.548;2023-04-24T12:27:26;12.05;;;8.52;;
77466;SDS011;66564;42.482;25.548;2023-04-24T12:29:56;9.00;;;7.40;;
77466;SDS011;66564;42.482;25.548;2023-04-24T12:32:23;13.93;;;7.78;;
77466;SDS011;66564;42.482;25.548;2023-04-24T12:34:50;12.70;;;7.78;;
77466;SDS011;66564;42.482;25.548;2023-04-24T12:37:17;10.57;;;7.28;;
77466;SDS011;66564;42.482;25.548;2023-04-24T12:42:33;14.15;;;8.20;;
77466;SDS011;66564;42.482;25.548;2023-04-24T12:45:03;12.35;;;7.20;;
77466;SDS011;66564;42.482;25.548;2023-04-24T12:47:31;11.43;;;7.78;;
77466;SDS011;66564;42.482;25.548;2023-04-24T12:49:58;11.07;;;7.97;;
77466;SDS011;66564;42.482;25.548;2023-04-24T12:52:25;11.10;;;6.88;;
77466;SDS011;66564;42.482;25.548;2023-04-24T12:54:55;12.45;;;7.28;;
77466;SDS011;66564;42.482;25.548;2023-04-24T12:57:22;11.98;;;7.85;;
77466;SDS011;66564;42.482;25.548;2023-04-24T12:59:48;12.32;;;7.28;;
77466;SDS011;66564;42.482;25.548;2023-04-24T13:02:14;8.30;;;7.10;;
77466;SDS011;66564;42.482;25.548;2023-04-24T13:04:43;9.55;;;7.28;;
77466;SDS011;66564;42.482;25.548;2023-04-24T13:07:09;10.73;;;7.95;;
77466;SDS011;66564;42.482;25.548;2023-04-24T13:09:35;9.40;;;7.07;;
77466;SDS011;66564;42.482;25.548;2023-04-24T13:12:02;10.95;;;7.32;;
77466;SDS011;66564;42.482;25.548;2023-04-24T13:14:28;12.30;;;7.38;;
77466;SDS011;66564;42.482;25.548;2023-04-24T13:16:53;11.40;;;7.82;;
77466;SDS011;66564;42.482;25.548;2023-04-24T13:19:19;11.07;;;7.28;;
77466;SDS011;66564;42.482;25.548;2023-04-24T13:21:45;13.85;;;8.00;;
77466;SDS011;66564;42.482;25.548;2023-04-24T13:24:10;8.82;;;7.47;;
77466;SDS011;66564;42.482;25.548;2023-04-24T13:26:39;11.68;;;7.97;;
77466;SDS011;66564;42.482;25.548;2023-04-24T13:29:05;12.80;;;8.50;;
77466;SDS011;66564;42.482;25.548;2023-04-24T13:31:30;9.60;;;7.05;;
77466;SDS011;66564;42.482;25.548;2023-04-24T13:33:56;11.38;;;7.70;;
77466;SDS011;66564;42.482;25.548;2023-04-24T13:36:21;12.23;;;8.05;;
77466;SDS011;66564;42.482;25.548;2023-04-24T13:38:47;11.10;;;7.50;;
77466;SDS011;66564;42.482;25.548;2023-04-24T13:41:12;11.32;;;7.18;;
77466;SDS011;66564;42.482;25.548;2023-04-24T13:43:38;8.77;;;7.25;;
77466;SDS011;66564;42.482;25.548;2023-04-24T13:46:04;12.45;;;7.75;;
77466;SDS011;66564;42.482;25.548;2023-04-24T13:48:30;9.55;;;6.68;;
77466;SDS011;66564;42.482;25.548;2023-04-24T13:50:55;9.18;;;7.15;;
77466;SDS011;66564;42.482;25.548;2023-04-24T13:53:21;9.73;;;7.60;;
77466;SDS011;66564;42.482;25.548;2023-04-24T13:55:49;9.30;;;7.00;;
77466;SDS011;66564;42.482;25.548;2023-04-24T13:58:15;11.25;;;6.93;;
77466;SDS011;66564;42.482;25.548;2023-04-24T14:00:41;10.50;;;7.82;;
77466;SDS011;66564;42.482;25.548;2023-04-24T14:03:06;10.85;;;7.45;;
77466;SDS011;66564;42.482;25.548;2023-04-24T14:05:32;12.65;;;6.90;;
77466;SDS011;66564;42.482;25.548;2023-04-24T14:07:57;10.70;;;6.53;;
77466;SDS011;66564;42.482;25.548;2023-04-24T14:10:23;8.35;;;5.90;;
77466;SDS011;66564;42.482;25.548;2023-04-24T14:12:49;9.20;;;6.25;;
77466;SDS011;66564;42.482;25.548;2023-04-24T14:15:15;12.02;;;6.38;;
77466;SDS011;66564;42.482;25.548;2023-04-24T14:17:41;9.38;;;6.40;;
77466;SDS011;66564;42.482;25.548;2023-04-24T14:20:07;8.95;;;6.50;;
77466;SDS011;66564;42.482;25.548;2023-04-24T14:22:34;11.32;;;6.95;;
77466;SDS011;66564;42.482;25.548;2023-04-24T14:25:00;8.05;;;5.90;;
77466;SDS011;66564;42.482;25.548;2023-04-24T14:27:25;8.70;;;6.63;;
77466;SDS011;66564;42.482;25.548;2023-04-24T14:29:51;8.40;;;6.15;;
77466;SDS011;66564;42.482;25.548;2023-04-24T14:32:17;11.27;;;6.15;;
77466;SDS011;66564;42.482;25.548;2023-04-24T14:34:43;7.70;;;5.82;;
77466;SDS011;66564;42.482;25.548;2023-04-24T14:37:08;8.57;;;6.80;;
77466;SDS011;66564;42.482;25.548;2023-04-24T14:39:37;13.10;;;6.60;;
77466;SDS011;66564;42.482;25.548;2023-04-24T14:42:08;11.07;;;6.68;;
77466;SDS011;66564;42.482;25.548;2023-04-24T14:44:33;12.25;;;6.95;;